createdAt,value
2022-09-03T00:01:01.590Z,0.90
2022-09-03T00:03:57.752Z,1.20
2022-09-03T00:06:51.236Z,0.90
2022-09-03T00:09:46.585Z,0.90
2022-09-03T00:12:39.484Z,1.10
2022-09-03T00:15:26.963Z,1.10
2022-09-03T00:18:24.848Z,1.50
2022-09-03T00:21:18.023Z,1.20
2022-09-03T00:24:10.927Z,1.20
2022-09-03T00:27:06.608Z,0.93
2022-09-03T00:30:14.697Z,1.30
2022-09-03T00:33:10.587Z,1.20
2022-09-03T00:36:03.266Z,1.00
2022-09-03T00:38:52.164Z,1.10
2022-09-03T00:42:07.847Z,1.30
2022-09-03T00:45:13.642Z,1.10
2022-09-03T00:48:17.605Z,1.10
2022-09-03T00:51:28.272Z,1.00
2022-09-03T00:54:36.530Z,1.10
2022-09-03T00:58:02.917Z,0.90
2022-09-03T01:00:52.789Z,1.30
2022-09-03T01:03:51.274Z,1.23
2022-09-03T01:06:59.822Z,1.10
2022-09-03T01:10:21.498Z,1.20
2022-09-03T01:13:26.734Z,1.20
2022-09-03T01:16:44.624Z,1.30
2022-09-03T01:19:52.159Z,1.37
2022-09-03T01:23:16.952Z,1.17
2022-09-03T01:26:43.053Z,1.17
2022-09-03T01:29:39.644Z,1.10
2022-09-03T01:32:43.890Z,1.20
2022-09-03T01:35:43.654Z,1.20
2022-09-03T01:38:38.445Z,1.37
2022-09-03T01:42:20.494Z,1.30
2022-09-03T01:45:18.731Z,1.40
2022-09-03T01:48:32.998Z,1.30
2022-09-03T01:51:21.524Z,1.80
2022-09-03T01:54:40.617Z,1.37
2022-09-03T01:57:42.574Z,1.20
2022-09-03T02:00:33.304Z,1.30
2022-09-03T02:03:20.968Z,1.33
2022-09-03T02:06:09.147Z,1.17
2022-09-03T02:08:56.118Z,1.30
2022-09-03T02:11:46.755Z,1.50
2022-09-03T02:14:34.617Z,1.30
2022-09-03T02:17:21.918Z,1.37
2022-09-03T02:20:12.035Z,1.33
2022-09-03T02:22:59.420Z,1.40
2022-09-03T02:25:52.741Z,1.33
2022-09-03T02:28:39.765Z,1.30
2022-09-03T02:31:28.117Z,1.40
2022-09-03T02:34:15.112Z,1.27
2022-09-03T02:37:12.745Z,1.50
2022-09-03T02:39:59.792Z,1.30
2022-09-03T02:42:48.013Z,1.30
2022-09-03T02:45:40.399Z,1.30
2022-09-03T02:48:27.873Z,1.50
2022-09-03T02:51:14.828Z,1.30
2022-09-03T02:54:02.558Z,1.40
2022-09-03T02:56:49.876Z,1.23
2022-09-03T02:59:37.089Z,1.43
2022-09-03T03:02:24.087Z,1.67
2022-09-03T03:05:21.897Z,1.40
2022-09-03T03:08:09.482Z,1.40
2022-09-03T03:10:58.804Z,1.50
2022-09-03T03:13:46.783Z,1.40
2022-09-03T03:16:33.921Z,1.43
2022-09-03T03:19:21.005Z,1.20
2022-09-03T03:22:07.997Z,1.10
2022-09-03T03:24:56.948Z,1.10
2022-09-03T03:27:43.985Z,1.17
2022-09-03T03:30:31.924Z,1.20
2022-09-03T03:33:19.081Z,1.40
2022-09-03T03:36:08.041Z,1.20
2022-09-03T03:38:56.776Z,1.20
2022-09-03T03:41:44.255Z,1.30
2022-09-03T03:44:31.333Z,1.40
2022-09-03T03:47:18.367Z,1.27
2022-09-03T03:50:05.921Z,1.50
2022-09-03T03:52:52.891Z,1.50
2022-09-03T03:55:40.036Z,1.37
2022-09-03T03:58:28.698Z,1.43
2022-09-03T04:01:18.484Z,1.60
2022-09-03T04:04:05.712Z,1.27
2022-09-03T04:06:52.716Z,1.40
2022-09-03T04:09:39.698Z,1.17
2022-09-03T04:12:27.266Z,1.40
2022-09-03T04:15:14.337Z,1.23
2022-09-03T04:18:01.344Z,1.07
2022-09-03T04:20:48.303Z,1.30
2022-09-03T04:23:37.884Z,1.20
2022-09-03T04:26:30.944Z,1.30
2022-09-03T04:29:18.338Z,1.33
2022-09-03T04:32:24.034Z,1.47
2022-09-03T04:35:11.313Z,1.40
2022-09-03T04:37:58.438Z,1.40
2022-09-03T04:40:52.854Z,1.30
2022-09-03T04:43:42.382Z,1.50
2022-09-03T04:46:33.259Z,1.33
2022-09-03T04:49:20.666Z,1.17
2022-09-03T04:52:07.760Z,1.17
2022-09-03T04:54:54.978Z,1.20
2022-09-03T04:57:43.054Z,1.20
2022-09-03T05:00:30.267Z,1.30
2022-09-03T05:03:17.764Z,1.40
2022-09-03T05:06:06.350Z,1.43
2022-09-03T05:08:55.633Z,1.40
2022-09-03T05:11:42.657Z,1.40
2022-09-03T05:14:29.623Z,1.30
2022-09-03T05:17:16.562Z,1.70
2022-09-03T05:20:03.737Z,1.50
2022-09-03T05:22:51.018Z,1.80
2022-09-03T05:25:38.139Z,1.40
2022-09-03T05:28:28.038Z,1.53
2022-09-03T05:31:19.732Z,1.50
2022-09-03T05:34:07.646Z,1.60
2022-09-03T05:36:56.734Z,1.60
2022-09-03T05:39:44.032Z,1.30
2022-09-03T05:42:32.315Z,1.33
2022-09-03T05:45:19.289Z,1.60
2022-09-03T05:48:06.268Z,1.40
2022-09-03T05:51:04.776Z,1.43
2022-09-03T05:53:53.493Z,1.50
2022-09-03T05:56:41.239Z,1.30
2022-09-03T05:59:28.296Z,1.67
2022-09-03T06:02:15.387Z,1.60
2022-09-03T06:05:02.582Z,1.33
2022-09-03T06:07:50.000Z,1.53
2022-09-03T06:10:40.978Z,1.30
2022-09-03T06:13:29.781Z,1.50
2022-09-03T06:16:16.793Z,1.40
2022-09-03T06:19:07.243Z,1.30
2022-09-03T06:21:55.334Z,1.23
2022-09-03T06:24:42.343Z,1.40
2022-09-03T06:27:29.300Z,1.70
2022-09-03T06:30:17.021Z,1.47
2022-09-03T06:33:03.986Z,1.30
2022-09-03T06:35:58.117Z,1.07
2022-09-03T06:38:46.339Z,1.13
2022-09-03T06:41:35.392Z,1.23
2022-09-03T06:44:22.427Z,1.40
2022-09-03T06:47:09.381Z,1.30
2022-09-03T06:49:56.332Z,1.40
2022-09-03T06:52:43.279Z,1.40
2022-09-03T06:55:30.644Z,1.30
2022-09-03T06:58:17.586Z,1.40
2022-09-03T07:01:31.231Z,1.13
2022-09-03T07:04:20.047Z,1.40
2022-09-03T07:07:13.162Z,1.13
2022-09-03T07:10:00.940Z,1.10
2022-09-03T07:12:47.896Z,1.20
2022-09-03T07:15:34.878Z,1.20
2022-09-03T07:18:21.930Z,1.60
2022-09-03T07:21:11.669Z,1.77
2022-09-03T07:23:59.947Z,1.53
2022-09-03T07:26:47.247Z,1.50
2022-09-03T07:29:34.263Z,1.90
2022-09-03T07:32:21.227Z,2.40
2022-09-03T07:35:08.585Z,2.30
2022-09-03T07:37:55.850Z,1.70
2022-09-03T07:40:43.728Z,1.50
2022-09-03T07:43:35.749Z,1.23
2022-09-03T07:46:24.929Z,1.20
2022-09-03T07:49:11.942Z,1.20
2022-09-03T07:51:58.886Z,1.20
2022-09-03T07:54:45.846Z,1.47
2022-09-03T07:57:32.796Z,1.20
2022-09-03T08:00:19.958Z,1.30
2022-09-03T08:03:08.737Z,1.40
2022-09-03T08:06:01.097Z,1.37
2022-09-03T08:08:48.381Z,1.13
2022-09-03T08:11:40.145Z,1.57
2022-09-03T08:14:27.102Z,1.30
2022-09-03T08:17:14.090Z,1.30
2022-09-03T08:20:01.327Z,1.10
2022-09-03T08:22:48.883Z,1.40
2022-09-03T08:25:36.818Z,1.10
2022-09-03T08:28:23.867Z,1.20
2022-09-03T08:31:13.917Z,1.20
2022-09-03T08:34:06.640Z,1.30
2022-09-03T08:36:54.487Z,1.27
2022-09-03T08:39:41.604Z,1.40
2022-09-03T08:42:49.100Z,1.30
2022-09-03T08:45:38.079Z,1.13
2022-09-03T08:48:27.242Z,1.07
2022-09-03T08:51:17.174Z,1.23
2022-09-03T08:54:05.571Z,1.20
2022-09-03T08:56:55.349Z,1.13
2022-09-03T08:59:42.319Z,1.10
2022-09-03T09:02:48.929Z,1.30
2022-09-03T09:06:21.283Z,1.30
2022-09-03T09:09:27.891Z,1.37
2022-09-03T09:12:54.098Z,1.20
2022-09-03T09:16:07.088Z,1.10
2022-09-03T09:19:17.722Z,1.23
2022-09-03T09:22:18.159Z,1.30
2022-09-03T09:25:19.316Z,1.07
2022-09-03T09:28:09.351Z,1.30
2022-09-03T09:30:57.541Z,1.10
2022-09-03T09:33:46.181Z,1.23
2022-09-03T09:36:52.162Z,1.10
2022-09-03T09:39:41.453Z,1.03
2022-09-03T09:42:31.031Z,1.10
2022-09-03T09:45:18.101Z,1.20
2022-09-03T09:48:10.826Z,1.20
2022-09-03T09:51:09.926Z,1.10
2022-09-03T09:54:19.958Z,0.93
2022-09-03T09:57:17.773Z,1.07
2022-09-03T10:00:13.721Z,1.20
2022-09-03T10:03:01.952Z,1.17
2022-09-03T10:06:23.416Z,0.90
2022-09-03T10:09:19.331Z,1.10
2022-09-03T10:12:27.663Z,1.27
2022-09-03T10:15:26.774Z,1.30
2022-09-03T10:18:32.351Z,1.10
2022-09-03T10:21:36.260Z,1.13
2022-09-03T10:24:39.673Z,1.27
2022-09-03T10:27:27.122Z,1.30
2022-09-03T10:30:16.943Z,1.20
2022-09-03T10:33:26.254Z,1.30
2022-09-03T10:36:26.496Z,1.20
2022-09-03T10:39:25.671Z,1.20
2022-09-03T10:42:22.111Z,1.30
2022-09-03T10:45:19.633Z,1.20
2022-09-03T10:48:18.787Z,1.10
2022-09-03T10:51:13.968Z,1.37
2022-09-03T10:54:07.238Z,1.30
2022-09-03T10:56:54.741Z,1.30
2022-09-03T11:00:08.803Z,1.33
2022-09-03T11:03:23.141Z,1.10
2022-09-03T11:06:19.302Z,1.30
2022-09-03T11:09:16.563Z,1.10
2022-09-03T11:12:12.246Z,1.40
2022-09-03T11:15:27.221Z,1.47
2022-09-03T11:18:43.372Z,1.63
2022-09-03T11:21:32.862Z,1.67
2022-09-03T11:24:33.022Z,1.50
2022-09-03T11:27:42.384Z,1.40
2022-09-03T11:30:49.695Z,1.10
2022-09-03T11:33:45.366Z,1.60
2022-09-03T11:36:35.470Z,1.60
2022-09-03T11:39:31.708Z,1.60
2022-09-03T11:42:41.125Z,1.70
2022-09-03T11:45:28.758Z,1.67
2022-09-03T11:48:34.947Z,1.63
2022-09-03T11:51:33.878Z,1.70
2022-09-03T11:54:23.672Z,1.70
2022-09-03T11:57:16.106Z,1.43
2022-09-03T12:00:18.524Z,1.60
2022-09-03T12:03:05.593Z,1.30
2022-09-03T12:06:05.566Z,1.40
2022-09-03T12:09:28.551Z,1.50
2022-09-03T12:12:46.141Z,1.57
2022-09-03T12:15:54.808Z,1.60
2022-09-03T12:18:42.450Z,1.70
2022-09-03T12:21:30.636Z,1.70
2022-09-03T12:24:20.303Z,1.57
2022-09-03T12:27:22.570Z,1.63
2022-09-03T12:30:17.621Z,1.80
2022-09-03T12:33:08.303Z,1.73
2022-09-03T12:35:59.817Z,1.63
2022-09-03T12:39:10.446Z,1.80
2022-09-03T12:42:06.857Z,1.90
2022-09-03T12:44:54.346Z,2.07
2022-09-03T12:47:42.586Z,1.67
2022-09-03T12:50:30.724Z,1.90
2022-09-03T12:53:24.635Z,1.80
2022-09-03T12:56:11.851Z,2.00
2022-09-03T12:59:11.201Z,1.63
2022-09-03T13:02:05.588Z,1.73
2022-09-03T13:04:53.846Z,1.60
2022-09-03T13:07:44.755Z,1.80
2022-09-03T13:10:36.846Z,1.70
2022-09-03T13:13:31.838Z,1.50
2022-09-03T13:16:34.524Z,1.60
2022-09-03T13:19:40.585Z,1.80
2022-09-03T13:22:55.564Z,1.43
2022-09-03T13:26:10.586Z,1.30
2022-09-03T13:29:32.172Z,1.60
2022-09-03T13:32:44.273Z,1.60
2022-09-03T13:36:10.709Z,1.40
2022-09-03T13:39:06.348Z,1.57
2022-09-03T13:42:02.126Z,1.60
2022-09-03T13:44:55.338Z,2.00
2022-09-03T13:48:26.727Z,1.73
2022-09-03T13:51:13.711Z,1.67
2022-09-03T13:54:13.365Z,1.80
2022-09-03T13:57:08.917Z,1.73
2022-09-03T14:00:10.671Z,1.80
2022-09-03T14:03:14.580Z,2.50
2022-09-03T14:06:07.336Z,2.37
2022-09-03T14:09:00.078Z,2.00
2022-09-03T14:11:55.275Z,1.47
2022-09-03T14:14:54.747Z,2.40
2022-09-03T14:18:00.051Z,1.97
2022-09-03T14:21:04.955Z,2.40
2022-09-03T14:24:10.368Z,2.30
2022-09-03T14:27:00.307Z,1.90
2022-09-03T14:29:53.895Z,1.77
2022-09-03T14:33:19.876Z,1.53
2022-09-03T14:36:40.270Z,1.63
2022-09-03T14:39:53.420Z,1.60
2022-09-03T14:43:03.661Z,1.30
2022-09-03T14:46:20.239Z,1.73
2022-09-03T14:49:38.439Z,1.63
2022-09-03T14:52:57.796Z,1.60
2022-09-03T14:55:59.224Z,1.60
2022-09-03T14:59:00.773Z,1.70
2022-09-03T15:02:06.911Z,1.80
2022-09-03T15:05:12.163Z,1.90
2022-09-03T15:08:08.131Z,1.70
2022-09-03T15:11:01.158Z,1.63
2022-09-03T15:14:12.202Z,1.70
2022-09-03T15:17:25.335Z,1.50
2022-09-03T15:20:32.875Z,1.83
2022-09-03T15:23:49.018Z,2.00
2022-09-03T15:26:49.978Z,2.27
2022-09-03T15:29:52.010Z,1.77
2022-09-03T15:33:03.126Z,1.47
2022-09-03T15:36:06.540Z,1.30
2022-09-03T15:39:05.790Z,1.40
2022-09-03T15:41:57.962Z,1.30
2022-09-03T15:44:50.224Z,1.37
2022-09-03T15:47:51.785Z,1.57
2022-09-03T15:51:13.867Z,1.23
2022-09-03T15:54:16.082Z,1.33
2022-09-03T15:57:12.539Z,1.20
2022-09-03T16:00:13.211Z,1.40
2022-09-03T16:03:20.412Z,1.30
2022-09-03T16:06:26.284Z,1.33
2022-09-03T16:10:07.636Z,1.40
2022-09-03T16:13:24.407Z,1.50
2022-09-03T16:16:17.641Z,1.43
2022-09-03T16:19:12.645Z,1.40
2022-09-03T16:22:07.479Z,1.30
2022-09-03T16:25:24.632Z,1.20
2022-09-03T16:28:25.246Z,1.43
2022-09-03T16:31:19.607Z,1.30
2022-09-03T16:34:18.672Z,1.57
2022-09-03T16:37:24.358Z,1.53
2022-09-03T16:40:26.606Z,1.60
2022-09-03T16:43:39.593Z,1.50
2022-09-03T16:47:07.770Z,1.60
2022-09-03T16:50:01.157Z,1.40
2022-09-03T16:53:15.059Z,1.70
2022-09-03T16:56:14.235Z,1.20
2022-09-03T16:59:28.139Z,1.40
2022-09-03T17:02:43.491Z,1.20
2022-09-03T17:05:45.693Z,1.13
2022-09-03T17:08:54.292Z,1.03
2022-09-03T17:11:47.307Z,1.10
2022-09-03T17:14:49.756Z,1.00
2022-09-03T17:17:49.455Z,1.03
2022-09-03T17:20:49.552Z,0.97
2022-09-03T17:23:38.055Z,1.00
2022-09-03T17:26:29.842Z,0.90
2022-09-03T17:29:43.259Z,0.97
2022-09-03T17:33:04.970Z,0.90
2022-09-03T17:36:10.519Z,0.90
2022-09-03T17:39:15.514Z,1.03
2022-09-03T17:42:32.069Z,1.07
2022-09-03T17:45:40.499Z,0.80
2022-09-03T17:48:50.454Z,0.90
2022-09-03T17:51:50.402Z,0.80
2022-09-03T17:54:45.335Z,0.97
2022-09-03T17:57:43.766Z,0.83
2022-09-03T18:00:40.636Z,0.80
2022-09-03T18:03:33.185Z,0.83
2022-09-03T18:06:26.148Z,0.80
2022-09-03T18:09:16.361Z,0.77
2022-09-03T18:12:11.575Z,1.23
2022-09-03T18:15:14.328Z,1.03
2022-09-03T18:18:20.049Z,1.00
2022-09-03T18:21:31.954Z,0.80
2022-09-03T18:25:01.048Z,1.20
2022-09-03T18:28:12.851Z,0.77
2022-09-03T18:31:18.690Z,0.90
2022-09-03T18:34:24.698Z,0.80
2022-09-03T18:37:30.269Z,0.70
2022-09-03T18:40:41.555Z,0.70
2022-09-03T18:44:09.135Z,1.07
2022-09-03T18:48:08.427Z,0.90
2022-09-03T18:51:49.657Z,0.90
2022-09-03T18:55:16.425Z,1.07
2022-09-03T18:58:48.384Z,1.00
2022-09-03T19:01:58.940Z,1.00
2022-09-03T19:05:13.461Z,1.00
2022-09-03T19:08:33.828Z,0.90
2022-09-03T19:11:55.878Z,1.17
2022-09-03T19:15:27.373Z,1.20
2022-09-03T19:19:00.464Z,0.80
2022-09-03T19:22:14.500Z,1.00
2022-09-03T19:25:29.983Z,0.80
2022-09-03T19:28:38.360Z,1.00
2022-09-03T19:31:52.278Z,0.90
2022-09-03T19:35:20.192Z,0.80
2022-09-03T19:38:52.771Z,1.00
2022-09-03T19:42:06.890Z,1.10
2022-09-03T19:45:27.944Z,1.13
2022-09-03T19:48:52.054Z,1.10
2022-09-03T19:52:02.130Z,1.20
2022-09-03T19:55:12.921Z,1.30
2022-09-03T19:58:41.440Z,1.20
2022-09-03T20:01:51.997Z,1.10
2022-09-03T20:05:07.294Z,1.20
2022-09-03T20:08:15.283Z,1.27
2022-09-03T20:11:05.246Z,1.40
2022-09-03T20:14:14.753Z,1.27
2022-09-03T20:17:19.315Z,1.57
2022-09-03T20:20:25.255Z,1.47
2022-09-03T20:23:27.373Z,1.23
2022-09-03T20:26:32.758Z,1.50
2022-09-03T20:29:47.453Z,1.50
2022-09-03T20:32:37.782Z,1.20
2022-09-03T20:35:49.191Z,1.40
2022-09-03T20:38:58.589Z,1.50
2022-09-03T20:41:50.422Z,1.40
2022-09-03T20:44:54.546Z,1.37
2022-09-03T20:48:21.848Z,1.50
2022-09-03T20:51:16.109Z,1.47
2022-09-03T20:54:12.301Z,1.47
2022-09-03T20:57:30.284Z,1.40
2022-09-03T21:00:19.047Z,1.30
2022-09-03T21:03:15.955Z,1.30
2022-09-03T21:06:20.245Z,1.33
2022-09-03T21:09:38.391Z,1.40
2022-09-03T21:12:45.039Z,1.60
2022-09-03T21:15:58.212Z,1.50
2022-09-03T21:18:50.463Z,1.37
2022-09-03T21:21:59.854Z,1.40
2022-09-03T21:24:58.800Z,1.70
2022-09-03T21:27:51.543Z,1.30
2022-09-03T21:30:41.716Z,1.50
2022-09-03T21:33:33.286Z,1.70
2022-09-03T21:36:31.264Z,1.67
2022-09-03T21:39:28.256Z,1.60
2022-09-03T21:42:27.053Z,1.50
2022-09-03T21:45:46.838Z,1.20
2022-09-03T21:48:40.048Z,1.60
2022-09-03T21:51:34.574Z,1.80
2022-09-03T21:54:28.875Z,1.80
2022-09-03T21:57:28.005Z,1.87
2022-09-03T22:00:20.000Z,1.80
2022-09-03T22:03:10.312Z,1.83
2022-09-03T22:06:05.690Z,1.90
2022-09-03T22:09:18.717Z,1.70
2022-09-03T22:12:27.348Z,1.97
2022-09-03T22:15:14.732Z,1.97
2022-09-03T22:18:15.561Z,2.10
2022-09-03T22:21:23.492Z,2.07
2022-09-03T22:24:24.507Z,1.77
2022-09-03T22:27:35.521Z,2.10
2022-09-03T22:30:22.559Z,2.07
2022-09-03T22:33:28.796Z,2.13
2022-09-03T22:36:27.264Z,2.07
2022-09-03T22:39:31.248Z,2.10
2022-09-03T22:42:44.292Z,2.00
2022-09-03T22:45:51.513Z,1.97
2022-09-03T22:48:44.453Z,2.10
2022-09-03T22:51:46.931Z,1.80
2022-09-03T22:54:43.649Z,2.13
2022-09-03T22:57:35.803Z,1.80
2022-09-03T23:00:23.413Z,1.60
2022-09-03T23:03:16.682Z,1.50
2022-09-03T23:06:09.949Z,2.00
2022-09-03T23:09:05.147Z,1.80
2022-09-03T23:12:01.486Z,1.83
2022-09-03T23:14:56.446Z,1.67
2022-09-03T23:17:49.926Z,1.60
2022-09-03T23:20:41.156Z,1.90
2022-09-03T23:23:34.260Z,2.00
2022-09-03T23:26:39.041Z,2.10
2022-09-03T23:29:48.902Z,1.80
2022-09-03T23:32:36.089Z,1.80
2022-09-03T23:35:27.451Z,1.70
2022-09-03T23:38:41.108Z,1.60
2022-09-03T23:41:48.348Z,1.73
2022-09-03T23:45:01.117Z,1.50
2022-09-03T23:48:09.893Z,1.63
2022-09-03T23:51:42.046Z,2.10
2022-09-03T23:54:39.840Z,2.00
2022-09-03T23:57:41.386Z,1.53
